sensor_id;sensor_type;location;lat;lon;timestamp;temperature;humidity
27368;DHT22;14839;48.106;11.618;2023-12-20T04:03:59;7.60;87.20
27368;DHT22;14839;48.106;11.618;2023-12-20T04:06:24;7.50;88.10
27368;DHT22;14839;48.106;11.618;2023-12-20T04:08:50;7.50;89.20
27368;DHT22;14839;48.106;11.618;2023-12-20T04:11:16;7.50;89.90
27368;DHT22;14839;48.106;11.618;2023-12-20T04:13:41;7.50;90.50
27368;DHT22;14839;48.106;11.618;2023-12-20T04:16:07;7.40;91.40
27368;DHT22;14839;48.106;11.618;2023-12-20T04:18:33;7.40;92.40
27368;DHT22;14839;48.106;11.618;2023-12-20T04:20:58;7.30;93.40
27368;DHT22;14839;48.106;11.618;2023-12-20T04:23:24;7.30;94.00
27368;DHT22;14839;48.106;11.618;2023-12-20T04:25:49;7.20;94.60
27368;DHT22;14839;48.106;11.618;2023-12-20T04:28:15;7.20;94.60
27368;DHT22;14839;48.106;11.618;2023-12-20T04:30:42;7.10;94.60
27368;DHT22;14839;48.106;11.618;2023-12-20T04:33:07;7.10;94.60
27368;DHT22;14839;48.106;11.618;2023-12-20T04:35:33;7.10;94.60
27368;DHT22;14839;48.106;11.618;2023-12-20T04:37:58;7.10;94.60
27368;DHT22;14839;48.106;11.618;2023-12-20T04:40:24;7.00;94.60
27368;DHT22;14839;48.106;11.618;2023-12-20T04:42:50;7.00;94.60
27368;DHT22;14839;48.106;11.618;2023-12-20T04:45:15;6.90;94.60
27368;DHT22;14839;48.106;11.618;2023-12-20T04:47:42;6.90;94.60
27368;DHT22;14839;48.106;11.618;2023-12-20T04:50:08;6.90;94.60
27368;DHT22;14839;48.106;11.618;2023-12-20T04:52:35;6.90;94.60
27368;DHT22;14839;48.106;11.618;2023-12-20T04:55:01;6.80;94.60
27368;DHT22;14839;48.106;11.618;2023-12-20T04:57:26;6.90;94.60
27368;DHT22;14839;48.106;11.618;2023-12-20T04:59:52;6.80;94.60
27368;DHT22;14839;48.106;11.618;2023-12-20T05:02:17;6.90;94.60
27368;DHT22;14839;48.106;11.618;2023-12-20T05:04:45;6.90;94.60
27368;DHT22;14839;48.106;11.618;2023-12-20T05:07:11;6.90;94.60
27368;DHT22;14839;48.106;11.618;2023-12-20T05:09:37;6.90;94.60
27368;DHT22;14839;48.106;11.618;2023-12-20T05:12:03;6.80;94.60
27368;DHT22;14839;48.106;11.618;2023-12-20T05:14:28;6.80;94.60
27368;DHT22;14839;48.106;11.618;2023-12-20T05:16:54;6.70;94.60
27368;DHT22;14839;48.106;11.618;2023-12-20T05:19:19;6.70;94.60
27368;DHT22;14839;48.106;11.618;2023-12-20T05:21:45;6.70;94.60
27368;DHT22;14839;48.106;11.618;2023-12-20T05:24:10;6.60;94.60
27368;DHT22;14839;48.106;11.618;2023-12-20T05:26:36;6.60;94.60
27368;DHT22;14839;48.106;11.618;2023-12-20T05:29:02;6.50;94.60
27368;DHT22;14839;48.106;11.618;2023-12-20T05:31:27;6.50;94.60
27368;DHT22;14839;48.106;11.618;2023-12-20T05:33:53;6.40;94.60
27368;DHT22;14839;48.106;11.618;2023-12-20T05:36:18;6.40;94.60
27368;DHT22;14839;48.106;11.618;2023-12-20T05:38:44;6.30;94.60
27368;DHT22;14839;48.106;11.618;2023-12-20T05:41:09;6.20;94.60
27368;DHT22;14839;48.106;11.618;2023-12-20T05:43:35;6.20;94.60
27368;DHT22;14839;48.106;11.618;2023-12-20T05:46:00;6.10;94.60
27368;DHT22;14839;48.106;11.618;2023-12-20T05:48:26;6.10;94.60
27368;DHT22;14839;48.106;11.618;2023-12-20T05:50:53;6.00;94.60
27368;DHT22;14839;48.106;11.618;2023-12-20T05:53:18;6.00;94.60
27368;DHT22;14839;48.106;11.618;2023-12-20T05:55:44;5.90;94.60
27368;DHT22;14839;48.106;11.618;2023-12-20T05:58:09;5.80;94.60
27368;DHT22;14839;48.106;11.618;2023-12-20T06:00:35;5.80;94.60
27368;DHT22;14839;48.106;11.618;2023-12-20T06:03:00;5.80;94.60
27368;DHT22;14839;48.106;11.618;2023-12-20T06:05:26;5.80;94.60
27368;DHT22;14839;48.106;11.618;2023-12-20T06:07:51;5.80;94.60
27368;DHT22;14839;48.106;11.618;2023-12-20T06:10:17;5.80;94.60
27368;DHT22;14839;48.106;11.618;2023-12-20T06:12:43;5.80;94.60
27368;DHT22;14839;48.106;11.618;2023-12-20T06:15:09;5.80;94.60
27368;DHT22;14839;48.106;11.618;2023-12-20T06:17:34;5.70;94.60
27368;DHT22;14839;48.106;11.618;2023-12-20T06:20:00;5.60;94.60
27368;DHT22;14839;48.106;11.618;2023-12-20T06:22:26;5.60;94.60
27368;DHT22;14839;48.106;11.618;2023-12-20T06:24:52;5.60;94.60
27368;DHT22;14839;48.106;11.618;2023-12-20T06:27:17;5.50;94.60
27368;DHT22;14839;48.106;11.618;2023-12-20T06:29:43;5.50;94.60
27368;DHT22;14839;48.106;11.618;2023-12-20T06:32:10;5.40;94.60
27368;DHT22;14839;48.106;11.618;2023-12-20T06:34:35;5.40;94.60
27368;DHT22;14839;48.106;11.618;2023-12-20T06:37:01;5.40;94.60
27368;DHT22;14839;48.106;11.618;2023-12-20T06:39:27;5.40;94.60
27368;DHT22;14839;48.106;11.618;2023-12-20T06:41:53;5.40;94.60
27368;DHT22;14839;48.106;11.618;2023-12-20T06:44:18;5.30;94.60
27368;DHT22;14839;48.106;11.618;2023-12-20T06:46:44;5.30;94.60
27368;DHT22;14839;48.106;11.618;2023-12-20T06:49:10;5.20;94.60
27368;DHT22;14839;48.106;11.618;2023-12-20T06:51:35;5.20;94.60
27368;DHT22;14839;48.106;11.618;2023-12-20T06:54:01;5.20;94.60
27368;DHT22;14839;48.106;11.618;2023-12-20T06:56:28;5.20;94.60
27368;DHT22;14839;48.106;11.618;2023-12-20T06:58:53;5.20;94.60
27368;DHT22;14839;48.106;11.618;2023-12-20T07:01:19;5.20;94.60
27368;DHT22;14839;48.106;11.618;2023-12-20T07:03:44;5.10;94.60
27368;DHT22;14839;48.106;11.618;2023-12-20T07:06:10;5.10;94.60
27368;DHT22;14839;48.106;11.618;2023-12-20T07:08:35;5.10;94.60
27368;DHT22;14839;48.106;11.618;2023-12-20T07:11:01;5.10;94.60
27368;DHT22;14839;48.106;11.618;2023-12-20T07:13:26;5.00;94.60
27368;DHT22;14839;48.106;11.618;2023-12-20T07:15:52;5.00;94.60
27368;DHT22;14839;48.106;11.618;2023-12-20T07:18:17;5.00;94.60
27368;DHT22;14839;48.106;11.618;2023-12-20T07:20:43;5.00;94.60
27368;DHT22;14839;48.106;11.618;2023-12-20T07:23:09;5.00;94.60
27368;DHT22;14839;48.106;11.618;2023-12-20T07:25:34;5.00;94.60
27368;DHT22;14839;48.106;11.618;2023-12-20T07:28:00;5.00;94.60
27368;DHT22;14839;48.106;11.618;2023-12-20T07:30:26;5.00;94.60
27368;DHT22;14839;48.106;11.618;2023-12-20T07:32:51;5.00;94.60
27368;DHT22;14839;48.106;11.618;2023-12-20T07:35:17;4.90;94.60
27368;DHT22;14839;48.106;11.618;2023-12-20T07:37:43;4.90;94.60
27368;DHT22;14839;48.106;11.618;2023-12-20T07:40:09;4.90;94.60
27368;DHT22;14839;48.106;11.618;2023-12-20T07:42:35;4.90;94.60
27368;DHT22;14839;48.106;11.618;2023-12-20T07:45:01;5.00;94.60
27368;DHT22;14839;48.106;11.618;2023-12-20T07:47:26;4.90;94.60
27368;DHT22;14839;48.106;11.618;2023-12-20T07:49:52;4.90;94.60
27368;DHT22;14839;48.106;11.618;2023-12-20T07:52:18;4.90;94.60
27368;DHT22;14839;48.106;11.618;2023-12-20T07:54:45;4.90;94.60
27368;DHT22;14839;48.106;11.618;2023-12-20T07:57:11;4.90;94.60
27368;DHT22;14839;48.106;11.618;2023-12-20T07:59:36;4.90;94.60
27368;DHT22;14839;48.106;11.618;2023-12-20T08:02:02;5.00;94.60
27368;DHT22;14839;48.106;11.618;2023-12-20T08:04:28;5.00;94.60
27368;DHT22;14839;48.106;11.618;2023-12-20T08:06:53;5.00;94.60
27368;DHT22;14839;48.106;11.618;2023-12-20T08:09:19;4.90;94.60
27368;DHT22;14839;48.106;11.618;2023-12-20T08:11:48;5.00;94.60
27368;DHT22;14839;48.106;11.618;2023-12-20T08:14:15;5.00;94.60
27368;DHT22;14839;48.106;11.618;2023-12-20T08:16:41;5.10;94.60
27368;DHT22;14839;48.106;11.618;2023-12-20T08:19:06;5.10;94.60
27368;DHT22;14839;48.106;11.618;2023-12-20T08:21:33;5.10;94.60
27368;DHT22;14839;48.106;11.618;2023-12-20T08:23:58;5.10;94.60
27368;DHT22;14839;48.106;11.618;2023-12-20T08:26:26;5.10;94.60
27368;DHT22;14839;48.106;11.618;2023-12-20T08:28:51;5.00;94.60
27368;DHT22;14839;48.106;11.618;2023-12-20T08:31:17;5.10;94.60
27368;DHT22;14839;48.106;11.618;2023-12-20T08:33:47;5.00;94.60
27368;DHT22;14839;48.106;11.618;2023-12-20T08:36:14;5.00;94.60
27368;DHT22;14839;48.106;11.618;2023-12-20T08:38:40;5.00;94.60
27368;DHT22;14839;48.106;11.618;2023-12-20T08:41:06;5.00;94.60
27368;DHT22;14839;48.106;11.618;2023-12-20T08:43:33;5.00;94.60
27368;DHT22;14839;48.106;11.618;2023-12-20T08:45:59;5.00;94.60
27368;DHT22;14839;48.106;11.618;2023-12-20T08:48:24;5.10;94.60
27368;DHT22;14839;48.106;11.618;2023-12-20T08:50:50;5.10;94.60
27368;DHT22;14839;48.106;11.618;2023-12-20T08:53:18;5.10;94.60
27368;DHT22;14839;48.106;11.618;2023-12-20T08:55:44;5.00;94.60
27368;DHT22;14839;48.106;11.618;2023-12-20T08:58:09;5.00;94.60
27368;DHT22;14839;48.106;11.618;2023-12-20T09:00:35;5.10;94.60
27368;DHT22;14839;48.106;11.618;2023-12-20T09:03:02;5.10;94.60
27368;DHT22;14839;48.106;11.618;2023-12-20T09:05:28;5.20;94.60
27368;DHT22;14839;48.106;11.618;2023-12-20T09:07:54;5.20;94.60
27368;DHT22;14839;48.106;11.618;2023-12-20T09:10:19;5.30;94.60
27368;DHT22;14839;48.106;11.618;2023-12-20T09:12:51;5.30;94.60
27368;DHT22;14839;48.106;11.618;2023-12-20T09:15:20;5.30;94.60
27368;DHT22;14839;48.106;11.618;2023-12-20T09:17:46;5.40;94.60
27368;DHT22;14839;48.106;11.618;2023-12-20T09:20:11;5.60;94.60
27368;DHT22;14839;48.106;11.618;2023-12-20T09:22:38;5.70;94.60
27368;DHT22;14839;48.106;11.618;2023-12-20T09:25:05;5.80;94.60
27368;DHT22;14839;48.106;11.618;2023-12-20T09:27:31;5.70;94.60
27368;DHT22;14839;48.106;11.618;2023-12-20T09:29:56;5.70;94.60
27368;DHT22;14839;48.106;11.618;2023-12-20T09:32:22;5.80;94.60
27368;DHT22;14839;48.106;11.618;2023-12-20T09:34:47;5.90;94.60
27368;DHT22;14839;48.106;11.618;2023-12-20T09:37:13;5.90;94.60
27368;DHT22;14839;48.106;11.618;2023-12-20T09:39:39;6.00;94.60
27368;DHT22;14839;48.106;11.618;2023-12-20T09:42:06;6.00;94.60
27368;DHT22;14839;48.106;11.618;2023-12-20T09:44:32;5.80;94.60
27368;DHT22;14839;48.106;11.618;2023-12-20T09:47:02;5.80;94.60
27368;DHT22;14839;48.106;11.618;2023-12-20T09:49:29;5.60;94.60
27368;DHT22;14839;48.106;11.618;2023-12-20T09:51:56;5.70;94.60
27368;DHT22;14839;48.106;11.618;2023-12-20T09:54:22;5.60;94.60
27368;DHT22;14839;48.106;11.618;2023-12-20T09:56:49;5.70;94.60
27368;DHT22;14839;48.106;11.618;2023-12-20T09:59:14;5.60;94.60
27368;DHT22;14839;48.106;11.618;2023-12-20T10:01:41;5.60;94.60
27368;DHT22;14839;48.106;11.618;2023-12-20T10:04:09;5.60;94.60
27368;DHT22;14839;48.106;11.618;2023-12-20T10:06:43;5.60;94.60
27368;DHT22;14839;48.106;11.618;2023-12-20T10:09:12;5.70;94.60
27368;DHT22;14839;48.106;11.618;2023-12-20T10:11:38;5.70;94.60
27368;DHT22;14839;48.106;11.618;2023-12-20T10:14:07;5.90;94.60
27368;DHT22;14839;48.106;11.618;2023-12-20T10:16:33;6.00;94.60
27368;DHT22;14839;48.106;11.618;2023-12-20T10:19:00;6.20;94.60
27368;DHT22;14839;48.106;11.618;2023-12-20T10:21:26;6.30;94.60
27368;DHT22;14839;48.106;11.618;2023-12-20T10:23:54;6.40;94.60
27368;DHT22;14839;48.106;11.618;2023-12-20T10:26:25;6.40;94.60
27368;DHT22;14839;48.106;11.618;2023-12-20T10:28:55;6.30;94.60
27368;DHT22;14839;48.106;11.618;2023-12-20T10:31:31;6.20;94.60
27368;DHT22;14839;48.106;11.618;2023-12-20T10:33:58;6.30;94.60
27368;DHT22;14839;48.106;11.618;2023-12-20T10:36:28;6.30;94.60
27368;DHT22;14839;48.106;11.618;2023-12-20T10:38:55;6.30;94.60
27368;DHT22;14839;48.106;11.618;2023-12-20T10:41:29;6.40;94.60
27368;DHT22;14839;48.106;11.618;2023-12-20T10:44:00;6.30;94.60
27368;DHT22;14839;48.106;11.618;2023-12-20T10:46:27;6.30;94.60
27368;DHT22;14839;48.106;11.618;2023-12-20T10:48:54;6.40;94.60
27368;DHT22;14839;48.106;11.618;2023-12-20T10:51:21;6.50;94.60
27368;DHT22;14839;48.106;11.618;2023-12-20T10:53:48;6.50;94.60
27368;DHT22;14839;48.106;11.618;2023-12-20T10:56:19;6.50;94.60
27368;DHT22;14839;48.106;11.618;2023-12-20T10:58:48;6.60;94.60
27368;DHT22;14839;48.106;11.618;2023-12-20T11:01:16;6.50;94.60
27368;DHT22;14839;48.106;11.618;2023-12-20T11:03:52;6.60;94.60
27368;DHT22;14839;48.106;11.618;2023-12-20T11:06:33;6.90;94.60
27368;DHT22;14839;48.106;11.618;2023-12-20T11:09:24;7.00;94.60
27368;DHT22;14839;48.106;11.618;2023-12-20T11:12:12;7.00;94.60
27368;DHT22;14839;48.106;11.618;2023-12-20T11:14:49;6.80;94.60
27368;DHT22;14839;48.106;11.618;2023-12-20T11:17:15;6.70;94.60
27368;DHT22;14839;48.106;11.618;2023-12-20T11:22:29;6.40;94.60
27368;DHT22;14839;48.106;11.618;2023-12-20T11:25:05;6.30;94.60
27368;DHT22;14839;48.106;11.618;2023-12-20T11:27:34;6.20;94.60
27368;DHT22;14839;48.106;11.618;2023-12-20T11:30:03;6.10;94.60
27368;DHT22;14839;48.106;11.618;2023-12-20T11:32:32;6.10;94.60
27368;DHT22;14839;48.106;11.618;2023-12-20T11:35:17;6.20;94.60
27368;DHT22;14839;48.106;11.618;2023-12-20T11:37:44;6.30;94.60
27368;DHT22;14839;48.106;11.618;2023-12-20T11:40:14;6.40;94.60
27368;DHT22;14839;48.106;11.618;2023-12-20T11:42:41;6.50;94.60
27368;DHT22;14839;48.106;11.618;2023-12-20T11:45:13;6.50;94.60
27368;DHT22;14839;48.106;11.618;2023-12-20T11:47:46;6.50;94.60
27368;DHT22;14839;48.106;11.618;2023-12-20T11:50:12;6.50;94.60
27368;DHT22;14839;48.106;11.618;2023-12-20T11:52:37;6.50;94.60
27368;DHT22;14839;48.106;11.618;2023-12-20T11:55:03;6.50;94.60
27368;DHT22;14839;48.106;11.618;2023-12-20T11:57:30;6.60;94.60
27368;DHT22;14839;48.106;11.618;2023-12-20T11:59:56;6.60;94.60
27368;DHT22;14839;48.106;11.618;2023-12-20T12:02:22;6.80;94.60
27368;DHT22;14839;48.106;11.618;2023-12-20T12:04:49;6.70;94.60
27368;DHT22;14839;48.106;11.618;2023-12-20T12:07:16;6.80;94.60
27368;DHT22;14839;48.106;11.618;2023-12-20T12:09:42;6.90;94.60
27368;DHT22;14839;48.106;11.618;2023-12-20T12:12:08;6.90;94.60
27368;DHT22;14839;48.106;11.618;2023-12-20T12:14:34;7.00;94.60
27368;DHT22;14839;48.106;11.618;2023-12-20T12:17:02;6.90;94.60
27368;DHT22;14839;48.106;11.618;2023-12-20T12:19:29;6.80;94.60
27368;DHT22;14839;48.106;11.618;2023-12-20T12:22:11;6.90;94.60
27368;DHT22;14839;48.106;11.618;2023-12-20T12:24:42;6.80;94.60
27368;DHT22;14839;48.106;11.618;2023-12-20T12:27:09;6.70;94.60
27368;DHT22;14839;48.106;11.618;2023-12-20T12:29:35;6.70;94.60
27368;DHT22;14839;48.106;11.618;2023-12-20T12:32:05;6.60;94.60
27368;DHT22;14839;48.106;11.618;2023-12-20T12:34:32;6.60;94.60
27368;DHT22;14839;48.106;11.618;2023-12-20T12:36:58;6.50;94.60
27368;DHT22;14839;48.106;11.618;2023-12-20T12:39:24;6.50;94.60
27368;DHT22;14839;48.106;11.618;2023-12-20T12:41:53;6.50;94.60
27368;DHT22;14839;48.106;11.618;2023-12-20T12:44:19;6.50;94.60
27368;DHT22;14839;48.106;11.618;2023-12-20T12:46:46;6.50;94.60
27368;DHT22;14839;48.106;11.618;2023-12-20T12:49:11;6.50;94.60
27368;DHT22;14839;48.106;11.618;2023-12-20T12:51:37;6.40;94.60
27368;DHT22;14839;48.106;11.618;2023-12-20T12:54:03;6.40;94.60
27368;DHT22;14839;48.106;11.618;2023-12-20T12:56:29;6.30;94.60
27368;DHT22;14839;48.106;11.618;2023-12-20T12:58:54;6.30;94.60
27368;DHT22;14839;48.106;11.618;2023-12-20T13:01:20;6.20;94.60
27368;DHT22;14839;48.106;11.618;2023-12-20T13:03:46;6.20;94.60
27368;DHT22;14839;48.106;11.618;2023-12-20T13:06:12;6.10;94.60
27368;DHT22;14839;48.106;11.618;2023-12-20T13:08:38;6.20;94.60
27368;DHT22;14839;48.106;11.618;2023-12-20T13:11:04;6.20;94.60
27368;DHT22;14839;48.106;11.618;2023-12-20T13:13:30;6.20;94.60
27368;DHT22;14839;48.106;11.618;2023-12-20T13:15:56;6.30;94.60
27368;DHT22;14839;48.106;11.618;2023-12-20T13:18:22;6.30;94.60
27368;DHT22;14839;48.106;11.618;2023-12-20T13:20:48;6.30;94.60
27368;DHT22;14839;48.106;11.618;2023-12-20T13:23:14;6.20;94.60
27368;DHT22;14839;48.106;11.618;2023-12-20T13:25:41;6.20;94.60
27368;DHT22;14839;48.106;11.618;2023-12-20T13:28:07;6.00;94.60
27368;DHT22;14839;48.106;11.618;2023-12-20T13:30:33;5.90;94.60
27368;DHT22;14839;48.106;11.618;2023-12-20T13:32:59;5.70;94.60
27368;DHT22;14839;48.106;11.618;2023-12-20T13:35:25;5.60;94.60
27368;DHT22;14839;48.106;11.618;2023-12-20T13:37:50;5.50;94.60
27368;DHT22;14839;48.106;11.618;2023-12-20T13:40:16;5.50;94.60
27368;DHT22;14839;48.106;11.618;2023-12-20T13:42:42;5.40;94.60
27368;DHT22;14839;48.106;11.618;2023-12-20T13:45:07;5.40;94.60
27368;DHT22;14839;48.106;11.618;2023-12-20T13:47:33;5.40;94.60
27368;DHT22;14839;48.106;11.618;2023-12-20T13:49:59;5.40;94.60
27368;DHT22;14839;48.106;11.618;2023-12-20T13:52:25;5.40;94.60
27368;DHT22;14839;48.106;11.618;2023-12-20T13:54:50;5.30;94.60
27368;DHT22;14839;48.106;11.618;2023-12-20T13:57:16;5.30;94.60
27368;DHT22;14839;48.106;11.618;2023-12-20T13:59:41;5.30;94.60
27368;DHT22;14839;48.106;11.618;2023-12-20T14:02:07;5.30;94.60
27368;DHT22;14839;48.106;11.618;2023-12-20T14:04:33;5.30;94.60
27368;DHT22;14839;48.106;11.618;2023-12-20T14:06:58;5.30;94.60
27368;DHT22;14839;48.106;11.618;2023-12-20T14:09:24;5.30;94.60
27368;DHT22;14839;48.106;11.618;2023-12-20T14:11:50;5.40;94.60
27368;DHT22;14839;48.106;11.618;2023-12-20T14:14:16;5.30;94.60
27368;DHT22;14839;48.106;11.618;2023-12-20T14:16:41;5.30;94.60
27368;DHT22;14839;48.106;11.618;2023-12-20T14:19:10;5.30;94.60
27368;DHT22;14839;48.106;11.618;2023-12-20T14:21:36;5.30;94.60
27368;DHT22;14839;48.106;11.618;2023-12-20T14:24:02;5.40;94.60
27368;DHT22;14839;48.106;11.618;2023-12-20T14:26:29;5.50;94.60
27368;DHT22;14839;48.106;11.618;2023-12-20T14:28:55;5.50;94.60
27368;DHT22;14839;48.106;11.618;2023-12-20T14:31:20;5.50;94.60
27368;DHT22;14839;48.106;11.618;2023-12-20T14:33:47;5.40;94.60
27368;DHT22;14839;48.106;11.618;2023-12-20T14:36:14;5.30;94.60
27368;DHT22;14839;48.106;11.618;2023-12-20T14:38:40;5.30;94.60
27368;DHT22;14839;48.106;11.618;2023-12-20T14:41:06;5.30;94.60
27368;DHT22;14839;48.106;11.618;2023-12-20T14:43:34;5.30;94.60
27368;DHT22;14839;48.106;11.618;2023-12-20T14:45:59;5.20;94.60
27368;DHT22;14839;48.106;11.618;2023-12-20T14:48:25;5.20;94.60
27368;DHT22;14839;48.106;11.618;2023-12-20T14:50:53;5.20;94.60
27368;DHT22;14839;48.106;11.618;2023-12-20T14:53:18;5.20;94.60
27368;DHT22;14839;48.106;11.618;2023-12-20T14:55:44;5.10;94.60
27368;DHT22;14839;48.106;11.618;2023-12-20T14:58:10;5.10;94.60
27368;DHT22;14839;48.106;11.618;2023-12-20T15:00:36;5.00;94.60
27368;DHT22;14839;48.106;11.618;2023-12-20T15:03:01;5.00;94.60
27368;DHT22;14839;48.106;11.618;2023-12-20T15:05:29;5.00;94.60
27368;DHT22;14839;48.106;11.618;2023-12-20T15:07:55;5.00;94.60
27368;DHT22;14839;48.106;11.618;2023-12-20T15:10:20;5.00;94.60
27368;DHT22;14839;48.106;11.618;2023-12-20T15:12:46;5.10;94.60
27368;DHT22;14839;48.106;11.618;2023-12-20T15:15:12;5.10;94.60
27368;DHT22;14839;48.106;11.618;2023-12-20T15:17:38;5.10;94.60
27368;DHT22;14839;48.106;11.618;2023-12-20T15:20:04;5.00;94.60
27368;DHT22;14839;48.106;11.618;2023-12-20T15:22:30;5.00;94.60
27368;DHT22;14839;48.106;11.618;2023-12-20T15:24:56;4.90;94.60
27368;DHT22;14839;48.106;11.618;2023-12-20T15:27:22;4.90;94.60
27368;DHT22;14839;48.106;11.618;2023-12-20T15:29:48;4.90;94.60
27368;DHT22;14839;48.106;11.618;2023-12-20T15:32:15;4.80;94.60
27368;DHT22;14839;48.106;11.618;2023-12-20T15:34:41;4.90;94.60
27368;DHT22;14839;48.106;11.618;2023-12-20T15:37:07;4.90;94.60
27368;DHT22;14839;48.106;11.618;2023-12-20T15:39:32;4.90;94.60
27368;DHT22;14839;48.106;11.618;2023-12-20T15:42:01;5.00;94.60
27368;DHT22;14839;48.106;11.618;2023-12-20T15:44:26;5.00;94.60
27368;DHT22;14839;48.106;11.618;2023-12-20T15:46:52;4.90;94.60
27368;DHT22;14839;48.106;11.618;2023-12-20T15:49:17;4.90;94.60
27368;DHT22;14839;48.106;11.618;2023-12-20T15:51:44;4.80;94.60
27368;DHT22;14839;48.106;11.618;2023-12-20T15:54:13;4.60;94.60
27368;DHT22;14839;48.106;11.618;2023-12-20T15:56:38;4.60;94.60
27368;DHT22;14839;48.106;11.618;2023-12-20T15:59:06;4.50;94.60
27368;DHT22;14839;48.106;11.618;2023-12-20T16:01:32;4.30;94.60
27368;DHT22;14839;48.106;11.618;2023-12-20T16:04:00;4.20;94.60
27368;DHT22;14839;48.106;11.618;2023-12-20T16:06:26;4.20;94.60
27368;DHT22;14839;48.106;11.618;2023-12-20T16:08:52;4.00;94.60
27368;DHT22;14839;48.106;11.618;2023-12-20T16:11:18;4.00;94.60
27368;DHT22;14839;48.106;11.618;2023-12-20T16:13:44;4.00;94.60
27368;DHT22;14839;48.106;11.618;2023-12-20T16:16:10;3.90;94.60
27368;DHT22;14839;48.106;11.618;2023-12-20T16:18:35;3.80;94.60
27368;DHT22;14839;48.106;11.618;2023-12-20T16:21:01;3.80;94.60
27368;DHT22;14839;48.106;11.618;2023-12-20T16:23:28;3.80;94.60
27368;DHT22;14839;48.106;11.618;2023-12-20T16:25:54;3.90;94.60
27368;DHT22;14839;48.106;11.618;2023-12-20T16:28:19;3.90;94.60
27368;DHT22;14839;48.106;11.618;2023-12-20T16:30:45;4.00;94.60
27368;DHT22;14839;48.106;11.618;2023-12-20T16:33:11;4.00;94.60
27368;DHT22;14839;48.106;11.618;2023-12-20T16:35:37;4.10;94.60
27368;DHT22;14839;48.106;11.618;2023-12-20T16:38:03;4.20;94.60
27368;DHT22;14839;48.106;11.618;2023-12-20T16:40:28;4.20;94.60
27368;DHT22;14839;48.106;11.618;2023-12-20T16:42:55;4.20;94.60
27368;DHT22;14839;48.106;11.618;2023-12-20T16:45:24;4.20;94.60
27368;DHT22;14839;48.106;11.618;2023-12-20T16:47:50;4.20;94.60
27368;DHT22;14839;48.106;11.618;2023-12-20T16:50:16;4.30;94.60
27368;DHT22;14839;48.106;11.618;2023-12-20T16:52:42;4.30;94.60
27368;DHT22;14839;48.106;11.618;2023-12-20T16:55:09;4.30;94.60
27368;DHT22;14839;48.106;11.618;2023-12-20T16:57:35;4.30;94.60
27368;DHT22;14839;48.106;11.618;2023-12-20T17:00:02;4.30;94.60
27368;DHT22;14839;48.106;11.618;2023-12-20T17:02:27;4.30;94.60
27368;DHT22;14839;48.106;11.618;2023-12-20T17:04:53;4.40;94.60
27368;DHT22;14839;48.106;11.618;2023-12-20T17:07:19;4.40;94.60
27368;DHT22;14839;48.106;11.618;2023-12-20T17:09:44;4.40;94.60
27368;DHT22;14839;48.106;11.618;2023-12-20T17:12:11;4.40;94.60
27368;DHT22;14839;48.106;11.618;2023-12-20T17:14:37;4.30;94.60
27368;DHT22;14839;48.106;11.618;2023-12-20T17:17:03;4.30;94.60
27368;DHT22;14839;48.106;11.618;2023-12-20T17:19:29;4.30;94.60
27368;DHT22;14839;48.106;11.618;2023-12-20T17:21:57;4.30;94.60
27368;DHT22;14839;48.106;11.618;2023-12-20T17:24:22;4.30;94.60
27368;DHT22;14839;48.106;11.618;2023-12-20T17:26:48;4.20;94.60
27368;DHT22;14839;48.106;11.618;2023-12-20T17:29:14;4.20;94.60
27368;DHT22;14839;48.106;11.618;2023-12-20T17:31:39;4.10;94.60
27368;DHT22;14839;48.106;11.618;2023-12-20T17:34:07;4.00;94.60
27368;DHT22;14839;48.106;11.618;2023-12-20T17:36:34;4.00;94.60
27368;DHT22;14839;48.106;11.618;2023-12-20T17:39:00;4.10;94.60
27368;DHT22;14839;48.106;11.618;2023-12-20T17:41:25;4.10;94.60
27368;DHT22;14839;48.106;11.618;2023-12-20T17:43:51;4.20;94.60
27368;DHT22;14839;48.106;11.618;2023-12-20T17:46:17;4.10;94.60
27368;DHT22;14839;48.106;11.618;2023-12-20T17:48:42;4.10;94.60
27368;DHT22;14839;48.106;11.618;2023-12-20T17:51:08;4.10;94.60
27368;DHT22;14839;48.106;11.618;2023-12-20T17:53:33;4.10;94.60
27368;DHT22;14839;48.106;11.618;2023-12-20T17:55:59;4.10;94.60
27368;DHT22;14839;48.106;11.618;2023-12-20T17:58:24;4.10;94.60
27368;DHT22;14839;48.106;11.618;2023-12-20T18:00:50;4.10;94.60
27368;DHT22;14839;48.106;11.618;2023-12-20T18:03:15;4.10;94.60
27368;DHT22;14839;48.106;11.618;2023-12-20T18:05:41;4.10;94.60
27368;DHT22;14839;48.106;11.618;2023-12-20T18:08:07;4.10;94.60
27368;DHT22;14839;48.106;11.618;2023-12-20T18:10:32;4.10;94.60
27368;DHT22;14839;48.106;11.618;2023-12-20T18:12:58;4.10;94.60
27368;DHT22;14839;48.106;11.618;2023-12-20T18:15:23;4.10;94.60
27368;DHT22;14839;48.106;11.618;2023-12-20T18:17:49;4.10;94.60
27368;DHT22;14839;48.106;11.618;2023-12-20T18:20:14;4.10;94.60
27368;DHT22;14839;48.106;11.618;2023-12-20T18:22:41;4.00;94.60
27368;DHT22;14839;48.106;11.618;2023-12-20T18:25:07;4.00;94.60
27368;DHT22;14839;48.106;11.618;2023-12-20T18:27:33;4.00;94.60
27368;DHT22;14839;48.106;11.618;2023-12-20T18:29:58;3.90;94.60
27368;DHT22;14839;48.106;11.618;2023-12-20T18:32:33;3.90;94.60
27368;DHT22;14839;48.106;11.618;2023-12-20T18:35:00;3.80;94.60
27368;DHT22;14839;48.106;11.618;2023-12-20T18:37:27;3.80;94.60
27368;DHT22;14839;48.106;11.618;2023-12-20T18:39:53;3.80;94.60
27368;DHT22;14839;48.106;11.618;2023-12-20T18:42:18;3.80;94.60
27368;DHT22;14839;48.106;11.618;2023-12-20T18:44:44;3.90;94.60
27368;DHT22;14839;48.106;11.618;2023-12-20T18:47:09;3.90;94.60
27368;DHT22;14839;48.106;11.618;2023-12-20T18:49:35;3.90;94.60
27368;DHT22;14839;48.106;11.618;2023-12-20T18:52:01;3.90;94.60
27368;DHT22;14839;48.106;11.618;2023-12-20T18:54:28;3.90;94.60
27368;DHT22;14839;48.106;11.618;2023-12-20T18:56:53;3.90;94.60
27368;DHT22;14839;48.106;11.618;2023-12-20T18:59:19;3.80;94.60
27368;DHT22;14839;48.106;11.618;2023-12-20T19:01:47;3.80;94.60
27368;DHT22;14839;48.106;11.618;2023-12-20T19:04:12;3.90;94.60
27368;DHT22;14839;48.106;11.618;2023-12-20T19:06:39;3.90;94.60
27368;DHT22;14839;48.106;11.618;2023-12-20T19:09:04;3.90;94.60
27368;DHT22;14839;48.106;11.618;2023-12-20T19:11:30;3.80;94.60
27368;DHT22;14839;48.106;11.618;2023-12-20T19:13:58;3.90;94.60
27368;DHT22;14839;48.106;11.618;2023-12-20T19:16:23;3.80;94.60
27368;DHT22;14839;48.106;11.618;2023-12-20T19:18:49;3.80;94.60
27368;DHT22;14839;48.106;11.618;2023-12-20T19:21:15;3.80;94.60
27368;DHT22;14839;48.106;11.618;2023-12-20T19:23:40;3.70;94.60
27368;DHT22;14839;48.106;11.618;2023-12-20T19:26:13;3.70;94.60
27368;DHT22;14839;48.106;11.618;2023-12-20T19:28:41;3.60;94.60
27368;DHT22;14839;48.106;11.618;2023-12-20T19:31:11;3.60;94.60